sensor_id;sensor_type;location;lat;lon;timestamp;P1;durP1;ratioP1;P2;durP2;ratioP2
21424;SDS011;10873;51.132;16.848;2022-11-20T00:00:11;57.50;;;34.90;;
21424;SDS011;10873;51.132;16.848;2022-11-20T00:02:59;61.22;;;34.33;;
21424;SDS011;10873;51.132;16.848;2022-11-20T00:05:25;55.35;;;33.10;;
21424;SDS011;10873;51.132;16.848;2022-11-20T00:07:51;55.05;;;31.98;;
21424;SDS011;10873;51.132;16.848;2022-11-20T00:10:17;53.85;;;31.95;;
21424;SDS011;10873;51.132;16.848;2022-11-20T00:12:43;53.38;;;30.95;;
21424;SDS011;10873;51.132;16.848;2022-11-20T00:15:09;54.22;;;30.58;;
21424;SDS011;10873;51.132;16.848;2022-11-20T00:17:35;52.00;;;32.53;;
21424;SDS011;10873;51.132;16.848;2022-11-20T00:20:03;51.83;;;31.65;;
21424;SDS011;10873;51.132;16.848;2022-11-20T00:22:30;48.00;;;31.35;;
21424;SDS011;10873;51.132;16.848;2022-11-20T00:24:56;50.58;;;31.45;;
21424;SDS011;10873;51.132;16.848;2022-11-20T00:27:23;48.05;;;30.52;;
21424;SDS011;10873;51.132;16.848;2022-11-20T00:29:49;48.33;;;30.45;;
21424;SDS011;10873;51.132;16.848;2022-11-20T00:32:15;46.88;;;29.90;;
21424;SDS011;10873;51.132;16.848;2022-11-20T00:34:41;47.97;;;30.20;;
21424;SDS011;10873;51.132;16.848;2022-11-20T00:37:08;46.72;;;28.98;;
21424;SDS011;10873;51.132;16.848;2022-11-20T00:39:34;47.75;;;28.73;;
21424;SDS011;10873;51.132;16.848;2022-11-20T00:42:00;42.75;;;28.38;;
21424;SDS011;10873;51.132;16.848;2022-11-20T00:44:26;41.90;;;27.27;;
21424;SDS011;10873;51.132;16.848;2022-11-20T00:46:52;42.53;;;26.95;;
21424;SDS011;10873;51.132;16.848;2022-11-20T00:49:18;41.58;;;26.90;;
21424;SDS011;10873;51.132;16.848;2022-11-20T00:51:44;40.92;;;26.45;;
21424;SDS011;10873;51.132;16.848;2022-11-20T00:54:12;41.20;;;27.13;;
21424;SDS011;10873;51.132;16.848;2022-11-20T00:56:38;40.65;;;25.63;;
21424;SDS011;10873;51.132;16.848;2022-11-20T00:59:04;39.47;;;25.30;;
21424;SDS011;10873;51.132;16.848;2022-11-20T01:01:30;39.60;;;24.73;;
21424;SDS011;10873;51.132;16.848;2022-11-20T01:03:57;35.38;;;23.33;;
21424;SDS011;10873;51.132;16.848;2022-11-20T01:06:24;38.10;;;24.38;;
21424;SDS011;10873;51.132;16.848;2022-11-20T01:08:53;36.28;;;23.55;;
21424;SDS011;10873;51.132;16.848;2022-11-20T01:11:22;34.55;;;22.85;;
21424;SDS011;10873;51.132;16.848;2022-11-20T01:13:49;35.80;;;23.52;;
21424;SDS011;10873;51.132;16.848;2022-11-20T01:16:17;33.53;;;22.17;;
21424;SDS011;10873;51.132;16.848;2022-11-20T01:18:45;34.15;;;23.33;;
21424;SDS011;10873;51.132;16.848;2022-11-20T01:21:12;35.60;;;22.92;;
21424;SDS011;10873;51.132;16.848;2022-11-20T01:23:40;34.35;;;22.50;;
21424;SDS011;10873;51.132;16.848;2022-11-20T01:26:07;33.78;;;22.25;;
21424;SDS011;10873;51.132;16.848;2022-11-20T01:28:37;31.50;;;22.08;;
21424;SDS011;10873;51.132;16.848;2022-11-20T01:31:10;34.85;;;22.60;;
21424;SDS011;10873;51.132;16.848;2022-11-20T01:33:38;33.38;;;22.05;;
21424;SDS011;10873;51.132;16.848;2022-11-20T01:36:05;36.30;;;23.10;;
21424;SDS011;10873;51.132;16.848;2022-11-20T01:38:32;33.88;;;21.58;;
21424;SDS011;10873;51.132;16.848;2022-11-20T01:40:58;32.90;;;21.67;;
21424;SDS011;10873;51.132;16.848;2022-11-20T01:43:24;31.23;;;21.20;;
21424;SDS011;10873;51.132;16.848;2022-11-20T01:48:45;31.02;;;21.27;;
21424;SDS011;10873;51.132;16.848;2022-11-20T01:51:17;33.15;;;22.08;;
21424;SDS011;10873;51.132;16.848;2022-11-20T01:53:48;34.65;;;22.60;;
21424;SDS011;10873;51.132;16.848;2022-11-20T01:56:14;32.15;;;21.50;;
21424;SDS011;10873;51.132;16.848;2022-11-20T01:58:42;34.67;;;22.42;;
21424;SDS011;10873;51.132;16.848;2022-11-20T02:01:12;33.08;;;22.85;;
21424;SDS011;10873;51.132;16.848;2022-11-20T02:03:40;32.65;;;22.52;;
21424;SDS011;10873;51.132;16.848;2022-11-20T02:06:08;36.83;;;23.90;;
21424;SDS011;10873;51.132;16.848;2022-11-20T02:08:38;35.75;;;24.27;;
21424;SDS011;10873;51.132;16.848;2022-11-20T02:11:04;37.97;;;24.08;;
21424;SDS011;10873;51.132;16.848;2022-11-20T02:13:31;35.38;;;24.38;;
21424;SDS011;10873;51.132;16.848;2022-11-20T02:16:14;38.75;;;25.75;;
21424;SDS011;10873;51.132;16.848;2022-11-20T02:18:44;39.42;;;26.42;;
21424;SDS011;10873;51.132;16.848;2022-11-20T02:21:13;39.05;;;25.80;;
21424;SDS011;10873;51.132;16.848;2022-11-20T02:23:59;38.22;;;25.48;;
21424;SDS011;10873;51.132;16.848;2022-11-20T02:26:26;35.92;;;24.98;;
21424;SDS011;10873;51.132;16.848;2022-11-20T02:28:55;38.83;;;25.67;;
21424;SDS011;10873;51.132;16.848;2022-11-20T02:31:23;35.38;;;25.05;;
21424;SDS011;10873;51.132;16.848;2022-11-20T02:33:53;37.58;;;24.67;;
21424;SDS011;10873;51.132;16.848;2022-11-20T02:36:20;36.70;;;24.27;;
21424;SDS011;10873;51.132;16.848;2022-11-20T02:38:47;37.05;;;25.08;;
21424;SDS011;10873;51.132;16.848;2022-11-20T02:41:16;37.33;;;24.80;;
21424;SDS011;10873;51.132;16.848;2022-11-20T02:43:42;38.35;;;26.10;;
21424;SDS011;10873;51.132;16.848;2022-11-20T02:46:08;37.50;;;25.77;;
21424;SDS011;10873;51.132;16.848;2022-11-20T02:48:34;33.75;;;23.42;;
21424;SDS011;10873;51.132;16.848;2022-11-20T02:51:00;33.97;;;23.42;;
21424;SDS011;10873;51.132;16.848;2022-11-20T02:53:27;34.95;;;22.90;;
21424;SDS011;10873;51.132;16.848;2022-11-20T02:55:53;35.53;;;23.95;;
21424;SDS011;10873;51.132;16.848;2022-11-20T02:58:21;38.08;;;24.90;;
21424;SDS011;10873;51.132;16.848;2022-11-20T03:00:46;36.45;;;24.42;;
21424;SDS011;10873;51.132;16.848;2022-11-20T03:03:13;37.50;;;24.58;;
21424;SDS011;10873;51.132;16.848;2022-11-20T03:05:38;36.22;;;23.98;;
21424;SDS011;10873;51.132;16.848;2022-11-20T03:08:04;37.33;;;23.40;;
21424;SDS011;10873;51.132;16.848;2022-11-20T03:10:30;35.97;;;23.67;;
21424;SDS011;10873;51.132;16.848;2022-11-20T03:12:57;35.90;;;23.58;;
21424;SDS011;10873;51.132;16.848;2022-11-20T03:15:24;34.38;;;23.20;;
21424;SDS011;10873;51.132;16.848;2022-11-20T03:17:52;37.72;;;22.88;;
21424;SDS011;10873;51.132;16.848;2022-11-20T03:20:19;36.42;;;23.65;;
21424;SDS011;10873;51.132;16.848;2022-11-20T03:22:45;32.17;;;22.58;;
21424;SDS011;10873;51.132;16.848;2022-11-20T03:25:11;31.80;;;22.33;;
21424;SDS011;10873;51.132;16.848;2022-11-20T03:27:37;38.30;;;24.50;;
21424;SDS011;10873;51.132;16.848;2022-11-20T03:30:03;33.95;;;23.55;;
21424;SDS011;10873;51.132;16.848;2022-11-20T03:32:32;34.25;;;22.73;;
21424;SDS011;10873;51.132;16.848;2022-11-20T03:34:58;33.88;;;22.88;;
21424;SDS011;10873;51.132;16.848;2022-11-20T03:37:24;32.95;;;22.67;;
21424;SDS011;10873;51.132;16.848;2022-11-20T03:39:50;36.78;;;23.30;;
21424;SDS011;10873;51.132;16.848;2022-11-20T03:42:16;34.53;;;22.80;;
21424;SDS011;10873;51.132;16.848;2022-11-20T03:45:01;34.38;;;23.08;;
21424;SDS011;10873;51.132;16.848;2022-11-20T03:47:27;32.08;;;21.95;;
21424;SDS011;10873;51.132;16.848;2022-11-20T03:49:55;34.90;;;23.52;;
21424;SDS011;10873;51.132;16.848;2022-11-20T03:52:21;32.90;;;23.50;;
21424;SDS011;10873;51.132;16.848;2022-11-20T03:54:47;34.90;;;22.42;;
21424;SDS011;10873;51.132;16.848;2022-11-20T03:57:13;34.13;;;22.65;;
21424;SDS011;10873;51.132;16.848;2022-11-20T03:59:39;36.00;;;23.15;;
21424;SDS011;10873;51.132;16.848;2022-11-20T04:02:05;35.55;;;22.98;;
21424;SDS011;10873;51.132;16.848;2022-11-20T04:04:31;33.55;;;22.13;;
21424;SDS011;10873;51.132;16.848;2022-11-20T04:06:58;29.23;;;20.98;;
21424;SDS011;10873;51.132;16.848;2022-11-20T04:09:24;33.15;;;21.85;;
21424;SDS011;10873;51.132;16.848;2022-11-20T04:11:51;32.70;;;22.48;;
21424;SDS011;10873;51.132;16.848;2022-11-20T04:14:17;33.78;;;23.17;;
21424;SDS011;10873;51.132;16.848;2022-11-20T04:16:43;31.67;;;22.00;;
21424;SDS011;10873;51.132;16.848;2022-11-20T04:19:09;34.97;;;23.52;;
21424;SDS011;10873;51.132;16.848;2022-11-20T04:21:37;32.45;;;21.90;;
21424;SDS011;10873;51.132;16.848;2022-11-20T04:24:04;33.63;;;21.95;;
21424;SDS011;10873;51.132;16.848;2022-11-20T04:26:31;35.15;;;23.80;;
21424;SDS011;10873;51.132;16.848;2022-11-20T04:28:58;33.97;;;23.45;;
21424;SDS011;10873;51.132;16.848;2022-11-20T04:31:25;35.10;;;23.63;;
21424;SDS011;10873;51.132;16.848;2022-11-20T04:33:52;35.47;;;22.65;;
21424;SDS011;10873;51.132;16.848;2022-11-20T04:36:20;36.35;;;24.25;;
21424;SDS011;10873;51.132;16.848;2022-11-20T04:38:50;36.45;;;24.08;;
21424;SDS011;10873;51.132;16.848;2022-11-20T04:41:18;37.78;;;24.13;;
21424;SDS011;10873;51.132;16.848;2022-11-20T04:43:45;36.28;;;23.88;;
21424;SDS011;10873;51.132;16.848;2022-11-20T04:46:14;34.90;;;23.02;;
21424;SDS011;10873;51.132;16.848;2022-11-20T04:48:40;33.63;;;22.38;;
21424;SDS011;10873;51.132;16.848;2022-11-20T04:51:07;34.72;;;23.30;;
21424;SDS011;10873;51.132;16.848;2022-11-20T04:53:32;32.95;;;22.95;;
21424;SDS011;10873;51.132;16.848;2022-11-20T04:55:59;33.40;;;22.73;;
21424;SDS011;10873;51.132;16.848;2022-11-20T04:58:27;32.92;;;21.80;;
21424;SDS011;10873;51.132;16.848;2022-11-20T05:00:57;33.80;;;21.63;;
21424;SDS011;10873;51.132;16.848;2022-11-20T05:03:26;31.23;;;22.30;;
21424;SDS011;10873;51.132;16.848;2022-11-20T05:05:52;32.47;;;22.30;;
21424;SDS011;10873;51.132;16.848;2022-11-20T05:08:18;31.30;;;21.65;;
21424;SDS011;10873;51.132;16.848;2022-11-20T05:10:44;32.85;;;22.48;;
21424;SDS011;10873;51.132;16.848;2022-11-20T05:13:10;32.58;;;21.45;;
21424;SDS011;10873;51.132;16.848;2022-11-20T05:15:37;31.33;;;21.42;;
21424;SDS011;10873;51.132;16.848;2022-11-20T05:18:03;31.98;;;22.13;;
21424;SDS011;10873;51.132;16.848;2022-11-20T05:20:29;31.20;;;21.77;;
21424;SDS011;10873;51.132;16.848;2022-11-20T05:22:56;34.28;;;22.08;;
21424;SDS011;10873;51.132;16.848;2022-11-20T05:25:22;32.22;;;21.35;;
21424;SDS011;10873;51.132;16.848;2022-11-20T05:27:48;32.70;;;21.70;;
21424;SDS011;10873;51.132;16.848;2022-11-20T05:30:14;32.53;;;22.05;;
21424;SDS011;10873;51.132;16.848;2022-11-20T05:32:42;30.65;;;21.30;;
21424;SDS011;10873;51.132;16.848;2022-11-20T05:35:08;34.42;;;21.92;;
21424;SDS011;10873;51.132;16.848;2022-11-20T05:37:34;31.95;;;21.52;;
21424;SDS011;10873;51.132;16.848;2022-11-20T05:40:00;31.35;;;22.48;;
21424;SDS011;10873;51.132;16.848;2022-11-20T05:42:26;31.60;;;21.67;;
21424;SDS011;10873;51.132;16.848;2022-11-20T05:44:58;33.30;;;22.17;;
21424;SDS011;10873;51.132;16.848;2022-11-20T05:47:25;31.30;;;20.77;;
21424;SDS011;10873;51.132;16.848;2022-11-20T05:49:53;30.88;;;21.63;;
21424;SDS011;10873;51.132;16.848;2022-11-20T05:52:19;31.58;;;20.85;;
21424;SDS011;10873;51.132;16.848;2022-11-20T05:54:45;31.50;;;20.58;;
21424;SDS011;10873;51.132;16.848;2022-11-20T05:57:11;33.55;;;21.25;;
21424;SDS011;10873;51.132;16.848;2022-11-20T05:59:37;30.52;;;20.63;;
21424;SDS011;10873;51.132;16.848;2022-11-20T06:02:03;32.58;;;20.88;;
21424;SDS011;10873;51.132;16.848;2022-11-20T06:04:31;30.58;;;20.05;;
21424;SDS011;10873;51.132;16.848;2022-11-20T06:06:59;28.67;;;20.35;;
21424;SDS011;10873;51.132;16.848;2022-11-20T06:09:25;32.85;;;21.33;;
21424;SDS011;10873;51.132;16.848;2022-11-20T06:11:51;40.30;;;25.55;;
21424;SDS011;10873;51.132;16.848;2022-11-20T06:14:17;60.80;;;35.70;;
21424;SDS011;10873;51.132;16.848;2022-11-20T06:16:43;61.17;;;37.65;;
21424;SDS011;10873;51.132;16.848;2022-11-20T06:19:09;59.60;;;35.97;;
21424;SDS011;10873;51.132;16.848;2022-11-20T06:21:35;55.80;;;34.50;;
21424;SDS011;10873;51.132;16.848;2022-11-20T06:24:03;53.08;;;33.22;;
21424;SDS011;10873;51.132;16.848;2022-11-20T06:26:29;49.95;;;30.98;;
21424;SDS011;10873;51.132;16.848;2022-11-20T06:28:56;51.45;;;30.45;;
21424;SDS011;10873;51.132;16.848;2022-11-20T06:31:22;46.28;;;29.13;;
21424;SDS011;10873;51.132;16.848;2022-11-20T06:33:50;46.78;;;28.35;;
21424;SDS011;10873;51.132;16.848;2022-11-20T06:36:17;42.47;;;28.42;;
21424;SDS011;10873;51.132;16.848;2022-11-20T06:38:45;42.50;;;26.77;;
21424;SDS011;10873;51.132;16.848;2022-11-20T06:41:13;44.10;;;28.50;;
21424;SDS011;10873;51.132;16.848;2022-11-20T06:43:40;43.47;;;27.90;;
21424;SDS011;10873;51.132;16.848;2022-11-20T06:46:08;42.38;;;26.75;;
21424;SDS011;10873;51.132;16.848;2022-11-20T06:48:35;45.05;;;27.58;;
21424;SDS011;10873;51.132;16.848;2022-11-20T06:51:02;39.88;;;25.98;;
21424;SDS011;10873;51.132;16.848;2022-11-20T06:53:29;40.47;;;26.65;;
21424;SDS011;10873;51.132;16.848;2022-11-20T06:55:55;50.80;;;33.75;;
21424;SDS011;10873;51.132;16.848;2022-11-20T06:58:25;60.08;;;41.50;;
21424;SDS011;10873;51.132;16.848;2022-11-20T07:00:52;75.38;;;49.92;;
21424;SDS011;10873;51.132;16.848;2022-11-20T07:03:18;74.65;;;49.60;;
21424;SDS011;10873;51.132;16.848;2022-11-20T07:05:44;71.53;;;46.25;;
21424;SDS011;10873;51.132;16.848;2022-11-20T07:08:11;65.32;;;44.10;;
21424;SDS011;10873;51.132;16.848;2022-11-20T07:10:37;68.38;;;44.55;;
21424;SDS011;10873;51.132;16.848;2022-11-20T07:13:03;66.03;;;43.40;;
21424;SDS011;10873;51.132;16.848;2022-11-20T07:15:31;73.82;;;45.65;;
21424;SDS011;10873;51.132;16.848;2022-11-20T07:17:58;68.78;;;43.85;;
21424;SDS011;10873;51.132;16.848;2022-11-20T07:20:24;73.80;;;43.55;;
21424;SDS011;10873;51.132;16.848;2022-11-20T07:22:53;66.88;;;43.38;;
21424;SDS011;10873;51.132;16.848;2022-11-20T07:25:19;63.53;;;41.78;;
21424;SDS011;10873;51.132;16.848;2022-11-20T07:27:46;64.30;;;41.50;;
21424;SDS011;10873;51.132;16.848;2022-11-20T07:30:12;69.97;;;41.95;;
21424;SDS011;10873;51.132;16.848;2022-11-20T07:32:40;63.03;;;41.03;;
21424;SDS011;10873;51.132;16.848;2022-11-20T07:35:07;65.30;;;42.03;;
21424;SDS011;10873;51.132;16.848;2022-11-20T07:37:33;67.70;;;42.17;;
21424;SDS011;10873;51.132;16.848;2022-11-20T07:39:59;64.93;;;41.65;;
21424;SDS011;10873;51.132;16.848;2022-11-20T07:42:26;65.57;;;41.47;;
21424;SDS011;10873;51.132;16.848;2022-11-20T07:44:52;58.65;;;38.88;;
21424;SDS011;10873;51.132;16.848;2022-11-20T07:47:18;59.55;;;39.70;;
21424;SDS011;10873;51.132;16.848;2022-11-20T07:49:45;61.53;;;38.10;;
21424;SDS011;10873;51.132;16.848;2022-11-20T07:52:11;60.00;;;38.55;;
21424;SDS011;10873;51.132;16.848;2022-11-20T07:54:37;59.47;;;37.95;;
21424;SDS011;10873;51.132;16.848;2022-11-20T07:57:03;55.78;;;37.22;;
21424;SDS011;10873;51.132;16.848;2022-11-20T07:59:29;59.08;;;37.92;;
21424;SDS011;10873;51.132;16.848;2022-11-20T08:01:55;54.45;;;35.72;;
21424;SDS011;10873;51.132;16.848;2022-11-20T08:04:21;54.22;;;34.70;;
21424;SDS011;10873;51.132;16.848;2022-11-20T08:06:51;52.60;;;34.17;;
21424;SDS011;10873;51.132;16.848;2022-11-20T08:09:17;49.20;;;34.22;;
21424;SDS011;10873;51.132;16.848;2022-11-20T08:11:43;49.70;;;33.60;;
21424;SDS011;10873;51.132;16.848;2022-11-20T08:14:28;48.72;;;32.47;;
21424;SDS011;10873;51.132;16.848;2022-11-20T08:16:54;46.25;;;31.25;;
21424;SDS011;10873;51.132;16.848;2022-11-20T08:19:20;47.78;;;31.25;;
21424;SDS011;10873;51.132;16.848;2022-11-20T08:21:46;45.17;;;29.88;;
21424;SDS011;10873;51.132;16.848;2022-11-20T08:24:14;44.25;;;30.73;;
21424;SDS011;10873;51.132;16.848;2022-11-20T08:26:40;45.35;;;30.25;;
21424;SDS011;10873;51.132;16.848;2022-11-20T08:29:06;43.83;;;29.65;;
21424;SDS011;10873;51.132;16.848;2022-11-20T08:31:32;67.57;;;32.42;;
21424;SDS011;10873;51.132;16.848;2022-11-20T08:34:19;75.60;;;33.28;;
21424;SDS011;10873;51.132;16.848;2022-11-20T08:36:46;66.72;;;31.58;;
21424;SDS011;10873;51.132;16.848;2022-11-20T08:39:13;54.25;;;29.55;;
21424;SDS011;10873;51.132;16.848;2022-11-20T08:41:39;60.08;;;29.75;;
21424;SDS011;10873;51.132;16.848;2022-11-20T08:44:06;61.70;;;30.08;;
21424;SDS011;10873;51.132;16.848;2022-11-20T08:46:33;52.45;;;28.92;;
21424;SDS011;10873;51.132;16.848;2022-11-20T08:49:02;44.97;;;27.73;;
21424;SDS011;10873;51.132;16.848;2022-11-20T08:51:28;48.15;;;28.13;;
21424;SDS011;10873;51.132;16.848;2022-11-20T08:53:55;44.08;;;26.90;;
21424;SDS011;10873;51.132;16.848;2022-11-20T08:56:22;41.92;;;27.13;;
21424;SDS011;10873;51.132;16.848;2022-11-20T08:58:49;42.50;;;26.63;;
21424;SDS011;10873;51.132;16.848;2022-11-20T09:01:16;41.40;;;26.13;;
21424;SDS011;10873;51.132;16.848;2022-11-20T09:03:42;37.75;;;24.65;;
21424;SDS011;10873;51.132;16.848;2022-11-20T09:06:09;35.35;;;24.10;;
21424;SDS011;10873;51.132;16.848;2022-11-20T09:08:35;36.95;;;24.30;;
21424;SDS011;10873;51.132;16.848;2022-11-20T09:11:02;40.65;;;24.80;;
21424;SDS011;10873;51.132;16.848;2022-11-20T09:13:30;38.88;;;23.15;;
21424;SDS011;10873;51.132;16.848;2022-11-20T09:15:58;38.58;;;23.88;;
21424;SDS011;10873;51.132;16.848;2022-11-20T09:18:25;33.17;;;22.95;;
21424;SDS011;10873;51.132;16.848;2022-11-20T09:20:56;33.95;;;22.33;;
21424;SDS011;10873;51.132;16.848;2022-11-20T09:23:22;33.00;;;21.33;;
21424;SDS011;10873;51.132;16.848;2022-11-20T09:25:49;31.88;;;21.42;;
21424;SDS011;10873;51.132;16.848;2022-11-20T09:28:15;33.70;;;21.13;;
21424;SDS011;10873;51.132;16.848;2022-11-20T09:30:45;34.17;;;21.67;;
21424;SDS011;10873;51.132;16.848;2022-11-20T09:33:11;29.17;;;20.73;;
21424;SDS011;10873;51.132;16.848;2022-11-20T09:35:37;31.02;;;20.58;;
21424;SDS011;10873;51.132;16.848;2022-11-20T09:38:06;28.25;;;19.85;;
21424;SDS011;10873;51.132;16.848;2022-11-20T09:40:34;29.90;;;19.42;;
21424;SDS011;10873;51.132;16.848;2022-11-20T09:43:03;27.92;;;19.95;;
21424;SDS011;10873;51.132;16.848;2022-11-20T09:45:43;28.48;;;18.98;;
21424;SDS011;10873;51.132;16.848;2022-11-20T09:48:25;27.33;;;18.85;;
21424;SDS011;10873;51.132;16.848;2022-11-20T09:51:03;28.48;;;19.27;;
21424;SDS011;10873;51.132;16.848;2022-11-20T09:53:39;28.63;;;18.15;;
21424;SDS011;10873;51.132;16.848;2022-11-20T09:56:16;25.58;;;18.25;;
21424;SDS011;10873;51.132;16.848;2022-11-20T09:58:44;25.90;;;17.85;;
21424;SDS011;10873;51.132;16.848;2022-11-20T10:01:15;25.50;;;18.10;;
21424;SDS011;10873;51.132;16.848;2022-11-20T10:03:45;24.15;;;17.30;;
21424;SDS011;10873;51.132;16.848;2022-11-20T10:06:21;22.05;;;16.45;;
21424;SDS011;10873;51.132;16.848;2022-11-20T10:08:55;25.15;;;17.75;;
21424;SDS011;10873;51.132;16.848;2022-11-20T10:11:33;27.27;;;16.88;;
21424;SDS011;10873;51.132;16.848;2022-11-20T10:14:10;23.80;;;16.83;;
21424;SDS011;10873;51.132;16.848;2022-11-20T10:16:46;23.80;;;17.20;;
21424;SDS011;10873;51.132;16.848;2022-11-20T10:19:24;25.02;;;16.33;;
21424;SDS011;10873;51.132;16.848;2022-11-20T10:21:59;25.35;;;16.42;;
21424;SDS011;10873;51.132;16.848;2022-11-20T10:24:42;24.55;;;16.67;;
21424;SDS011;10873;51.132;16.848;2022-11-20T10:27:27;23.85;;;16.30;;
21424;SDS011;10873;51.132;16.848;2022-11-20T10:30:07;23.52;;;16.10;;
21424;SDS011;10873;51.132;16.848;2022-11-20T10:32:38;22.38;;;15.90;;
21424;SDS011;10873;51.132;16.848;2022-11-20T10:35:07;20.90;;;15.50;;
21424;SDS011;10873;51.132;16.848;2022-11-20T10:37:44;22.98;;;15.52;;
21424;SDS011;10873;51.132;16.848;2022-11-20T10:40:18;20.63;;;14.90;;
21424;SDS011;10873;51.132;16.848;2022-11-20T10:42:49;21.70;;;15.60;;
21424;SDS011;10873;51.132;16.848;2022-11-20T10:45:19;22.05;;;15.52;;
21424;SDS011;10873;51.132;16.848;2022-11-20T10:48:01;20.17;;;15.00;;
21424;SDS011;10873;51.132;16.848;2022-11-20T10:50:36;20.98;;;14.55;;
21424;SDS011;10873;51.132;16.848;2022-11-20T10:53:13;19.38;;;14.23;;
21424;SDS011;10873;51.132;16.848;2022-11-20T10:55:50;19.52;;;14.50;;
21424;SDS011;10873;51.132;16.848;2022-11-20T10:58:22;19.73;;;14.35;;
21424;SDS011;10873;51.132;16.848;2022-11-20T11:01:02;21.90;;;13.98;;
21424;SDS011;10873;51.132;16.848;2022-11-20T11:03:31;19.17;;;13.55;;
21424;SDS011;10873;51.132;16.848;2022-11-20T11:05:59;20.15;;;14.15;;
21424;SDS011;10873;51.132;16.848;2022-11-20T11:08:34;22.50;;;14.35;;
21424;SDS011;10873;51.132;16.848;2022-11-20T11:11:07;20.95;;;14.52;;
21424;SDS011;10873;51.132;16.848;2022-11-20T11:13:45;19.08;;;14.55;;
21424;SDS011;10873;51.132;16.848;2022-11-20T11:16:16;21.20;;;13.88;;
21424;SDS011;10873;51.132;16.848;2022-11-20T11:18:47;20.83;;;14.43;;
21424;SDS011;10873;51.132;16.848;2022-11-20T11:21:13;24.92;;;16.38;;
21424;SDS011;10873;51.132;16.848;2022-11-20T11:23:48;30.75;;;19.23;;
21424;SDS011;10873;51.132;16.848;2022-11-20T11:26:24;27.05;;;17.58;;
21424;SDS011;10873;51.132;16.848;2022-11-20T11:28:55;25.15;;;17.17;;
21424;SDS011;10873;51.132;16.848;2022-11-20T11:31:22;22.55;;;15.85;;
21424;SDS011;10873;51.132;16.848;2022-11-20T11:33:51;24.77;;;15.93;;
21424;SDS011;10873;51.132;16.848;2022-11-20T11:36:17;22.23;;;15.68;;
21424;SDS011;10873;51.132;16.848;2022-11-20T11:38:48;25.30;;;16.17;;
21424;SDS011;10873;51.132;16.848;2022-11-20T11:41:19;24.15;;;16.10;;
21424;SDS011;10873;51.132;16.848;2022-11-20T11:43:50;22.75;;;15.40;;
21424;SDS011;10873;51.132;16.848;2022-11-20T11:46:54;22.48;;;15.02;;
21424;SDS011;10873;51.132;16.848;2022-11-20T11:49:23;22.38;;;15.23;;
21424;SDS011;10873;51.132;16.848;2022-11-20T11:52:00;22.75;;;15.90;;
21424;SDS011;10873;51.132;16.848;2022-11-20T11:54:32;22.80;;;14.70;;
21424;SDS011;10873;51.132;16.848;2022-11-20T11:57:03;21.00;;;14.43;;
21424;SDS011;10873;51.132;16.848;2022-11-20T11:59:39;22.38;;;14.85;;
21424;SDS011;10873;51.132;16.848;2022-11-20T12:02:27;22.13;;;14.43;;
21424;SDS011;10873;51.132;16.848;2022-11-20T12:05:02;21.40;;;14.50;;
21424;SDS011;10873;51.132;16.848;2022-11-20T12:07:36;21.60;;;13.57;;
21424;SDS011;10873;51.132;16.848;2022-11-20T12:10:08;20.58;;;13.82;;
21424;SDS011;10873;51.132;16.848;2022-11-20T12:12:43;19.60;;;13.52;;
21424;SDS011;10873;51.132;16.848;2022-11-20T12:15:12;20.83;;;13.32;;
21424;SDS011;10873;51.132;16.848;2022-11-20T12:17:47;22.20;;;12.88;;
21424;SDS011;10873;51.132;16.848;2022-11-20T12:20:15;18.75;;;12.45;;
21424;SDS011;10873;51.132;16.848;2022-11-20T12:22:43;19.45;;;13.05;;
21424;SDS011;10873;51.132;16.848;2022-11-20T12:25:17;20.20;;;13.10;;
21424;SDS011;10873;51.132;16.848;2022-11-20T12:28:00;20.33;;;12.02;;
21424;SDS011;10873;51.132;16.848;2022-11-20T12:30:48;18.08;;;13.05;;
21424;SDS011;10873;51.132;16.848;2022-11-20T12:33:29;18.80;;;13.68;;
21424;SDS011;10873;51.132;16.848;2022-11-20T12:36:16;18.85;;;13.60;;
21424;SDS011;10873;51.132;16.848;2022-11-20T12:38:57;17.48;;;13.32;;
21424;SDS011;10873;51.132;16.848;2022-11-20T12:41:43;16.88;;;12.70;;
21424;SDS011;10873;51.132;16.848;2022-11-20T12:44:52;15.73;;;12.60;;
21424;SDS011;10873;51.132;16.848;2022-11-20T12:47:36;19.65;;;13.05;;
21424;SDS011;10873;51.132;16.848;2022-11-20T12:50:14;18.35;;;13.85;;
21424;SDS011;10873;51.132;16.848;2022-11-20T12:52:50;18.63;;;13.18;;
21424;SDS011;10873;51.132;16.848;2022-11-20T12:55:32;20.10;;;14.65;;
21424;SDS011;10873;51.132;16.848;2022-11-20T12:58:05;24.25;;;15.25;;
21424;SDS011;10873;51.132;16.848;2022-11-20T13:00:37;20.13;;;14.68;;
21424;SDS011;10873;51.132;16.848;2022-11-20T13:03:21;24.60;;;14.80;;
21424;SDS011;10873;51.132;16.848;2022-11-20T13:05:59;23.25;;;15.35;;
21424;SDS011;10873;51.132;16.848;2022-11-20T13:08:33;19.65;;;14.25;;
21424;SDS011;10873;51.132;16.848;2022-11-20T13:11:01;21.95;;;15.77;;
21424;SDS011;10873;51.132;16.848;2022-11-20T13:13:35;21.42;;;14.07;;
21424;SDS011;10873;51.132;16.848;2022-11-20T13:16:08;20.27;;;14.32;;
21424;SDS011;10873;51.132;16.848;2022-11-20T13:18:41;19.45;;;13.93;;
21424;SDS011;10873;51.132;16.848;2022-11-20T13:21:17;22.65;;;13.88;;
21424;SDS011;10873;51.132;16.848;2022-11-20T13:23:47;24.63;;;16.15;;
21424;SDS011;10873;51.132;16.848;2022-11-20T13:26:15;28.10;;;16.90;;
21424;SDS011;10873;51.132;16.848;2022-11-20T13:28:43;27.10;;;16.95;;
21424;SDS011;10873;51.132;16.848;2022-11-20T13:31:10;25.50;;;16.52;;
21424;SDS011;10873;51.132;16.848;2022-11-20T13:33:56;28.17;;;17.35;;
21424;SDS011;10873;51.132;16.848;2022-11-20T13:36:25;31.35;;;17.52;;
21424;SDS011;10873;51.132;16.848;2022-11-20T13:38:55;30.13;;;17.42;;
21424;SDS011;10873;51.132;16.848;2022-11-20T13:41:25;29.15;;;17.52;;
21424;SDS011;10873;51.132;16.848;2022-11-20T13:44:04;27.23;;;16.20;;
21424;SDS011;10873;51.132;16.848;2022-11-20T13:46:37;25.33;;;16.15;;
21424;SDS011;10873;51.132;16.848;2022-11-20T13:49:08;28.45;;;16.27;;
21424;SDS011;10873;51.132;16.848;2022-11-20T13:51:37;29.30;;;17.42;;
21424;SDS011;10873;51.132;16.848;2022-11-20T13:57:14;29.98;;;18.15;;
21424;SDS011;10873;51.132;16.848;2022-11-20T13:59:57;32.65;;;18.23;;
21424;SDS011;10873;51.132;16.848;2022-11-20T14:02:26;32.22;;;19.30;;
21424;SDS011;10873;51.132;16.848;2022-11-20T14:04:56;32.97;;;20.77;;
21424;SDS011;10873;51.132;16.848;2022-11-20T14:07:25;29.75;;;18.13;;
21424;SDS011;10873;51.132;16.848;2022-11-20T14:10:00;29.05;;;18.60;;
21424;SDS011;10873;51.132;16.848;2022-11-20T14:12:27;30.08;;;18.52;;
21424;SDS011;10873;51.132;16.848;2022-11-20T14:14:55;30.30;;;19.10;;
21424;SDS011;10873;51.132;16.848;2022-11-20T14:17:22;32.38;;;18.52;;
21424;SDS011;10873;51.132;16.848;2022-11-20T14:19:51;34.78;;;18.23;;
21424;SDS011;10873;51.132;16.848;2022-11-20T14:22:19;32.42;;;18.45;;
21424;SDS011;10873;51.132;16.848;2022-11-20T14:24:47;37.10;;;19.13;;
21424;SDS011;10873;51.132;16.848;2022-11-20T14:27:15;36.53;;;19.85;;